Dades meteomassalio
Diari Summary for Febrer 8, 2017 Units:  Metric    English   Both
« Previous Day
Next Day »
Diari Semanal Mensual Anual Personalitzat
  Maxima: Minima: Mijana:
Temperatura: 10.7 °C 4.6 °C 6.9 °C
Rosada: 5.2 °C 0.8 °C 2.2 °C
Humitat: 82 % 51 % 72 %
Velocitat del vent: 66.6 km/h 29.6 km/h 48.2 km/h
Racha vent: 66.6 km/h - -
Vent:- - NW
Pressio: 1024.9 hPa 1020.2 hPa -
Pluja: 0.0 mm    
Historical Graphs
 
 
Tabular Data for Febrer 8, 2017
Time Temperature Dew Point Pressure Wind Wind Speed Wind Gust Humidity Rainfall Rate (Hourly) solar Conditions
00:01 8.1 °C 5.2 °C 1020.5 hPa NW 38.9 km/h 38.9 km/h 82 % 0.0 mm 0.0 W/m2 RA
00:06 8.1 °C 5.2 °C 1020.9 hPa NW 31.5 km/h 31.5 km/h 82 % 0.0 mm 0.0 W/m2 CLR
00:11 8.0 °C 4.9 °C 1020.9 hPa WNW 33.3 km/h 33.3 km/h 81 % 0.0 mm 0.0 W/m2 CLR
00:16 8.0 °C 4.6 °C 1020.9 hPa NW 38.9 km/h 38.9 km/h 79 % 0.0 mm 0.0 W/m2 CLR
00:21 7.9 °C 4.4 °C 1020.9 hPa NW 40.7 km/h 40.7 km/h 79 % 0.0 mm 0.0 W/m2 CLR
00:26 7.8 °C 4.4 °C 1020.9 hPa NW 48.1 km/h 48.1 km/h 79 % 0.0 mm 0.0 W/m2 CLR
00:31 7.7 °C 4.1 °C 1020.9 hPa WNW 48.1 km/h 48.1 km/h 78 % 0.0 mm 0.0 W/m2 CLR
00:36 7.6 °C 4.2 °C 1020.9 hPa WNW 46.3 km/h 46.3 km/h 79 % 0.0 mm 0.0 W/m2 CLR
00:41 7.5 °C 4.3 °C 1021.2 hPa WNW 42.6 km/h 42.6 km/h 80 % 0.0 mm 0.0 W/m2 CLR
00:46 7.4 °C 4.2 °C 1021.2 hPa WNW 40.7 km/h 40.7 km/h 80 % 0.0 mm 0.0 W/m2 CLR
00:51 7.3 °C 3.9 °C 1020.9 hPa WNW 42.6 km/h 42.6 km/h 79 % 0.0 mm 0.0 W/m2 CLR
00:56 7.2 °C 3.8 °C 1020.9 hPa NW 42.6 km/h 42.6 km/h 79 % 0.0 mm 0.0 W/m2 CLR
01:01 7.1 °C 3.9 °C 1020.9 hPa WNW 38.9 km/h 38.9 km/h 80 % 0.0 mm 0.0 W/m2 CLR
01:06 7.0 °C 3.8 °C 1021.2 hPa WNW 42.6 km/h 42.6 km/h 80 % 0.0 mm 0.0 W/m2 CLR
01:11 7.0 °C 3.6 °C 1021.2 hPa WNW 40.7 km/h 40.7 km/h 79 % 0.0 mm 0.0 W/m2 CLR
01:16 6.9 °C 3.6 °C 1021.2 hPa WNW 44.4 km/h 44.4 km/h 79 % 0.0 mm 0.0 W/m2 CLR
01:21 6.9 °C 3.5 °C 1021.2 hPa WNW 32.2 km/h 32.2 km/h 79 % 0.0 mm 0.0 W/m2 CLR
01:26 6.9 °C 3.5 °C 1020.9 hPa WNW 33.3 km/h 33.3 km/h 79 % 0.0 mm 0.0 W/m2 CLR
01:31 6.8 °C 3.3 °C 1020.9 hPa WNW 48.1 km/h 48.1 km/h 78 % 0.0 mm 0.0 W/m2 CLR
01:36 6.8 °C 3.2 °C 1021.2 hPa WNW 42.6 km/h 42.6 km/h 78 % 0.0 mm 0.0 W/m2 CLR
01:41 6.8 °C 3.0 °C 1021.2 hPa WNW 51.8 km/h 51.8 km/h 77 % 0.0 mm 0.0 W/m2 CLR
01:46 6.8 °C 3.0 °C 1021.2 hPa WNW 42.6 km/h 42.6 km/h 77 % 0.0 mm 0.0 W/m2 CLR
01:51 6.8 °C 3.0 °C 1021.2 hPa WNW 35.2 km/h 35.2 km/h 77 % 0.0 mm 0.0 W/m2 CLR
01:56 6.7 °C 2.9 °C 1021.6 hPa WNW 31.5 km/h 31.5 km/h 77 % 0.0 mm 0.0 W/m2 CLR
02:01 6.7 °C 2.9 °C 1021.2 hPa WNW 35.4 km/h 35.4 km/h 77 % 0.0 mm 0.0 W/m2 CLR
02:06 6.7 °C 2.8 °C 1021.2 hPa WNW 50.0 km/h 50.0 km/h 76 % 0.0 mm 0.0 W/m2 CLR
02:11 6.7 °C 2.7 °C 1021.2 hPa WNW 50.0 km/h 50.0 km/h 76 % 0.0 mm 0.0 W/m2 CLR
02:16 6.6 °C 2.6 °C 1021.2 hPa WNW 37.0 km/h 37.0 km/h 76 % 0.0 mm 0.0 W/m2 CLR
02:21 6.5 °C 2.8 °C 1020.9 hPa WNW 42.6 km/h 42.6 km/h 77 % 0.0 mm 0.0 W/m2 CLR
02:26 6.4 °C 2.7 °C 1021.2 hPa WNW 59.2 km/h 59.2 km/h 77 % 0.0 mm 0.0 W/m2 CLR
02:31 6.4 °C 2.7 °C 1020.9 hPa WNW 44.4 km/h 44.4 km/h 77 % 0.0 mm 0.0 W/m2
02:36 6.3 °C 2.6 °C 1020.9 hPa WNW 44.4 km/h 44.4 km/h 77 % 0.0 mm 0.0 W/m2 CLR
02:41 6.3 °C 2.4 °C 1020.9 hPa WNW 55.5 km/h 55.5 km/h 76 % 0.0 mm 0.0 W/m2
02:46 6.3 °C 2.6 °C 1020.9 hPa NW 51.8 km/h 51.8 km/h 77 % 0.0 mm 0.0 W/m2 CLR
02:51 6.2 °C 2.3 °C 1020.9 hPa NW 55.5 km/h 55.5 km/h 76 % 0.0 mm 0.0 W/m2 CLR
02:56 6.3 °C 2.3 °C 1020.9 hPa WNW 51.8 km/h 51.8 km/h 76 % 0.0 mm 0.0 W/m2
03:01 6.2 °C 2.3 °C 1020.9 hPa WNW 50.0 km/h 50.0 km/h 76 % 0.0 mm 0.0 W/m2
03:06 6.1 °C 2.2 °C 1020.9 hPa NW 53.7 km/h 53.7 km/h 76 % 0.0 mm 0.0 W/m2 CLR
03:11 6.1 °C 2.2 °C 1020.9 hPa NW 55.5 km/h 55.5 km/h 76 % 0.0 mm 0.0 W/m2 CLR
03:16 6.1 °C 2.2 °C 1021.2 hPa NW 61.1 km/h 61.1 km/h 76 % 0.0 mm 0.0 W/m2
03:21 6.0 °C 2.1 °C 1021.2 hPa WNW 59.2 km/h 59.2 km/h 76 % 0.0 mm 0.0 W/m2
03:26 5.9 °C 2.0 °C 1021.2 hPa WNW 53.7 km/h 53.7 km/h 76 % 0.0 mm 0.0 W/m2 CLR
03:31 5.8 °C 1.9 °C 1021.2 hPa WNW 62.9 km/h 62.9 km/h 76 % 0.0 mm 0.0 W/m2 CLR
03:36 5.8 °C 1.7 °C 1021.6 hPa NW 61.1 km/h 61.1 km/h 75 % 0.0 mm 0.0 W/m2 CLR
03:41 5.7 °C 1.6 °C 1021.6 hPa WNW 41.8 km/h 41.8 km/h 75 % 0.0 mm 0.0 W/m2 CLR
03:46 5.7 °C 1.4 °C 1021.6 hPa NW 51.8 km/h 51.8 km/h 74 % 0.0 mm 0.0 W/m2 CLR
03:51 5.6 °C 1.3 °C 1021.6 hPa NW 35.2 km/h 37.0 km/h 74 % 0.0 mm 0.0 W/m2 CLR
03:56 5.7 °C 1.4 °C 1021.2 hPa NW 42.6 km/h 42.6 km/h 74 % 0.0 mm 0.0 W/m2 CLR
04:02 5.7 °C 1.4 °C 1021.2 hPa WNW 53.7 km/h 53.7 km/h 74 % 0.0 mm 0.0 W/m2 CLR
04:07 5.7 °C 1.4 °C 1020.9 hPa WNW 55.5 km/h 55.5 km/h 74 % 0.0 mm 0.0 W/m2 CLR
04:12 5.6 °C 1.3 °C 1020.5 hPa WNW 55.5 km/h 55.5 km/h 74 % 0.0 mm 0.0 W/m2 CLR
04:17 5.6 °C 1.3 °C 1020.5 hPa WNW 53.7 km/h 53.7 km/h 74 % 0.0 mm 0.0 W/m2 CLR
04:22 5.6 °C 1.3 °C 1020.5 hPa WNW 51.8 km/h 51.8 km/h 74 % 0.0 mm 0.0 W/m2 CLR
04:27 5.5 °C 1.4 °C 1020.5 hPa WNW 51.8 km/h 51.8 km/h 75 % 0.0 mm 0.0 W/m2 CLR
04:32 5.5 °C 1.2 °C 1020.5 hPa WNW 48.1 km/h 48.1 km/h 74 % 0.0 mm 0.0 W/m2 CLR
04:37 5.5 °C 1.2 °C 1020.5 hPa WNW 55.5 km/h 55.5 km/h 74 % 0.0 mm 0.0 W/m2 CLR
04:42 5.4 °C 1.2 °C 1020.5 hPa NW 48.1 km/h 48.1 km/h 74 % 0.0 mm 0.0 W/m2 CLR
04:47 5.4 °C 1.3 °C 1020.5 hPa NW 45.1 km/h 45.1 km/h 75 % 0.0 mm 0.0 W/m2 CLR
04:52 5.3 °C 1.3 °C 1020.5 hPa NW 53.7 km/h 53.7 km/h 75 % 0.0 mm 0.0 W/m2 CLR
04:57 5.3 °C 1.2 °C 1020.5 hPa NW 40.2 km/h 40.2 km/h 75 % 0.0 mm 0.0 W/m2 CLR
05:02 5.3 °C 1.2 °C 1020.5 hPa NW 35.2 km/h 35.2 km/h 75 % 0.0 mm 0.0 W/m2 CLR
05:07 5.2 °C 1.2 °C 1020.2 hPa NW 46.7 km/h 46.7 km/h 75 % 0.0 mm 0.0 W/m2 CLR
05:12 5.2 °C 1.3 °C 1020.5 hPa NW 42.6 km/h 42.6 km/h 76 % 0.0 mm 0.0 W/m2 CLR
05:17 5.2 °C 1.3 °C 1020.5 hPa NW 55.5 km/h 55.5 km/h 76 % 0.0 mm 0.0 W/m2
05:22 5.2 °C 1.3 °C 1020.5 hPa NW 50.0 km/h 50.0 km/h 76 % 0.0 mm 0.0 W/m2 CLR
05:27 5.2 °C 1.3 °C 1020.9 hPa NW 44.4 km/h 44.4 km/h 76 % 0.0 mm 0.0 W/m2 CLR
05:32 5.2 °C 1.3 °C 1020.9 hPa NW 46.3 km/h 46.3 km/h 76 % 0.0 mm 0.0 W/m2 CLR
05:37 5.2 °C 1.3 °C 1020.9 hPa NW 38.9 km/h 38.9 km/h 76 % 0.0 mm 0.0 W/m2 CLR
05:42 5.2 °C 1.3 °C 1020.9 hPa WNW 38.9 km/h 38.9 km/h 76 % 0.0 mm 0.0 W/m2
05:47 5.1 °C 1.2 °C 1020.9 hPa NW 44.4 km/h 44.4 km/h 76 % 0.0 mm 0.0 W/m2 CLR
05:52 5.1 °C 1.2 °C 1020.9 hPa NW 50.0 km/h 50.0 km/h 76 % 0.0 mm 0.0 W/m2 CLR
05:57 5.1 °C 1.3 °C 1020.9 hPa NW 53.7 km/h 53.7 km/h 77 % 0.0 mm 0.0 W/m2 CLR
06:02 5.1 °C 1.2 °C 1020.9 hPa NW 53.7 km/h 53.7 km/h 76 % 0.0 mm 0.0 W/m2 CLR
06:07 5.0 °C 1.3 °C 1020.5 hPa WNW 53.7 km/h 53.7 km/h 77 % 0.0 mm 0.0 W/m2 CLR
06:12 4.9 °C 1.2 °C 1020.9 hPa NW 37.0 km/h 37.0 km/h 77 % 0.0 mm 0.0 W/m2 CLR
06:17 4.9 °C 1.4 °C 1020.9 hPa NW 40.7 km/h 40.7 km/h 78 % 0.0 mm 0.0 W/m2 CLR
06:22 4.9 °C 1.4 °C 1020.5 hPa WNW 42.6 km/h 42.6 km/h 78 % 0.0 mm 0.0 W/m2 CLR
06:27 4.9 °C 1.4 °C 1020.5 hPa WNW 55.5 km/h 55.5 km/h 78 % 0.0 mm 0.0 W/m2
06:32 4.8 °C 1.3 °C 1020.2 hPa WNW 57.4 km/h 57.4 km/h 78 % 0.0 mm 0.0 W/m2 CLR
06:37 4.8 °C 1.3 °C 1020.5 hPa NW 50.0 km/h 50.0 km/h 78 % 0.0 mm 0.0 W/m2
06:42 4.8 °C 1.3 °C 1020.5 hPa NW 42.6 km/h 42.6 km/h 78 % 0.0 mm 0.0 W/m2 CLR
06:47 4.7 °C 1.2 °C 1020.5 hPa NW 57.4 km/h 57.4 km/h 78 % 0.0 mm 0.0 W/m2 CLR
06:52 4.8 °C 1.3 °C 1020.5 hPa WNW 53.7 km/h 53.7 km/h 78 % 0.0 mm 0.0 W/m2 CLR
06:57 4.8 °C 1.3 °C 1020.5 hPa NW 46.3 km/h 46.3 km/h 78 % 0.0 mm 0.0 W/m2 CLR
07:02 4.8 °C 1.3 °C 1020.5 hPa WNW 42.6 km/h 42.6 km/h 78 % 0.0 mm 0.0 W/m2 CLR
07:07 4.8 °C 1.3 °C 1020.5 hPa NW 55.5 km/h 55.5 km/h 78 % 0.0 mm 0.0 W/m2 CLR
07:12 4.8 °C 1.3 °C 1020.9 hPa NW 49.9 km/h 49.9 km/h 78 % 0.0 mm 0.0 W/m2 CLR
07:17 4.8 °C 1.3 °C 1020.9 hPa NW 59.5 km/h 59.5 km/h 78 % 0.0 mm 0.0 W/m2 CLR
07:22 4.8 °C 1.3 °C 1020.9 hPa NW 42.6 km/h 42.6 km/h 78 % 0.0 mm 0.0 W/m2 CLR
07:27 4.7 °C 1.2 °C 1020.9 hPa NW 55.5 km/h 55.5 km/h 78 % 0.0 mm 0.0 W/m2 CLR
07:32 4.7 °C 1.2 °C 1021.2 hPa NW 57.4 km/h 57.4 km/h 78 % 0.0 mm 0.0 W/m2 CLR
07:37 4.7 °C 1.2 °C 1021.2 hPa NW 44.4 km/h 44.4 km/h 78 % 0.0 mm 0.0 W/m2 CLR
07:42 4.7 °C 1.4 °C 1021.6 hPa NW 33.3 km/h 33.3 km/h 79 % 0.0 mm 0.0 W/m2 CLR
07:47 4.7 °C 1.3 °C 1021.6 hPa NW 43.4 km/h 43.4 km/h 79 % 0.0 mm 0.0 W/m2 CLR
07:52 4.7 °C 1.3 °C 1021.6 hPa NW 32.2 km/h 32.2 km/h 79 % 0.0 mm 0.0 W/m2 CLR
07:57 4.6 °C 1.3 °C 1021.6 hPa NW 53.7 km/h 53.7 km/h 79 % 0.0 mm 0.0 W/m2 CLR
08:02 4.6 °C 1.3 °C 1021.6 hPa NW 42.6 km/h 42.6 km/h 79 % 0.0 mm 0.0 W/m2 OVC
08:07 4.6 °C 1.2 °C 1021.6 hPa WNW 53.7 km/h 53.7 km/h 79 % 0.0 mm 0.0 W/m2 OVC
08:12 4.7 °C 1.3 °C 1021.6 hPa WNW 44.4 km/h 44.4 km/h 79 % 0.0 mm 5.0 W/m2 OVC
08:17 4.6 °C 1.3 °C 1021.9 hPa NW 38.9 km/h 38.9 km/h 79 % 0.0 mm 7.0 W/m2 BKN
08:22 4.6 °C 1.3 °C 1021.9 hPa NW 62.9 km/h 62.9 km/h 79 % 0.0 mm 9.0 W/m2 BKN
08:27 4.6 °C 1.4 °C 1021.9 hPa WNW 40.7 km/h 40.7 km/h 80 % 0.0 mm 11.0 W/m2 BKN
08:32 4.6 °C 1.4 °C 1022.2 hPa NW 53.7 km/h 53.7 km/h 80 % 0.0 mm 12.0 W/m2 BKN
08:37 4.6 °C 1.4 °C 1021.9 hPa NW 55.5 km/h 55.5 km/h 80 % 0.0 mm 18.0 W/m2 BKN
08:42 4.6 °C 1.6 °C 1022.2 hPa NW 55.5 km/h 55.5 km/h 81 % 0.0 mm 26.0 W/m2 BKN
08:47 4.6 °C 1.4 °C 1022.6 hPa NW 42.6 km/h 42.6 km/h 80 % 0.0 mm 40.0 W/m2 SCT
08:52 4.7 °C 1.6 °C 1022.6 hPa NW 40.2 km/h 40.2 km/h 80 % 0.0 mm 42.0 W/m2 BKN
08:57 4.8 °C 1.6 °C 1022.6 hPa NW 55.5 km/h 55.5 km/h 80 % 0.0 mm 67.0 W/m2 FEW
09:02 4.9 °C 1.6 °C 1022.6 hPa NW 51.8 km/h 51.8 km/h 79 % 0.0 mm 72.0 W/m2 FEW
09:07 4.9 °C 1.6 °C 1022.6 hPa NW 51.8 km/h 51.8 km/h 79 % 0.0 mm 69.0 W/m2 FEW
09:12 5.0 °C 1.8 °C 1022.6 hPa NW 46.7 km/h 46.7 km/h 80 % 0.0 mm 74.0 W/m2 FEW
09:17 5.0 °C 1.8 °C 1022.6 hPa NW 55.5 km/h 55.5 km/h 80 % 0.0 mm 104.0 W/m2 FEW
09:22 5.0 °C 1.8 °C 1022.9 hPa NW 61.1 km/h 61.1 km/h 80 % 0.0 mm 104.0 W/m2 FEW
09:23 5.0 °C 1.8 °C 1022.6 hPa NW 61.1 km/h 61.1 km/h 80 % 0.0 mm 104.0 W/m2 FEW
09:28 5.0 °C 1.8 °C 1022.9 hPa NW 46.3 km/h 46.3 km/h 80 % 0.0 mm 130.0 W/m2 CLR
09:33 5.1 °C 1.9 °C 1022.9 hPa NW 51.8 km/h 51.8 km/h 80 % 0.0 mm 149.0 W/m2 CLR
09:38 5.1 °C 1.9 °C 1022.9 hPa NW 48.1 km/h 48.1 km/h 80 % 0.0 mm 111.0 W/m2 CLR
09:43 5.1 °C 2.1 °C 1022.9 hPa NW 50.0 km/h 50.0 km/h 81 % 0.0 mm 118.0 W/m2 CLR
09:48 5.1 °C 2.1 °C 1022.9 hPa NW 40.7 km/h 40.7 km/h 81 % 0.0 mm 123.0 W/m2 CLR
09:53 5.2 °C 2.2 °C 1022.6 hPa NW 48.1 km/h 48.1 km/h 81 % 0.0 mm 192.0 W/m2 CLR
09:58 5.4 °C 2.2 °C 1022.9 hPa NW 55.5 km/h 55.5 km/h 80 % 0.0 mm 167.0 W/m2 CLR
10:03 5.3 °C 2.2 °C 1022.9 hPa NW 42.6 km/h 42.6 km/h 80 % 0.0 mm 450.0 W/m2 CLR
10:08 5.5 °C 2.3 °C 1022.9 hPa NW 55.5 km/h 55.5 km/h 80 % 0.0 mm 218.0 W/m2 CLR
10:13 5.6 °C 2.4 °C 1022.6 hPa NW 62.9 km/h 62.9 km/h 80 % 0.0 mm 211.0 W/m2 CLR
10:18 5.6 °C 2.4 °C 1022.9 hPa NW 50.0 km/h 50.0 km/h 80 % 0.0 mm 274.0 W/m2 CLR
10:23 5.7 °C 2.6 °C 1022.6 hPa NW 50.0 km/h 50.0 km/h 80 % 0.0 mm 429.0 W/m2 CLR
10:28 5.9 °C 2.7 °C 1022.6 hPa NW 35.2 km/h 35.2 km/h 80 % 0.0 mm 299.0 W/m2 CLR
10:33 6.0 °C 2.6 °C 1022.9 hPa NW 57.4 km/h 57.4 km/h 79 % 0.0 mm 396.0 W/m2 CLR
10:38 6.1 °C 2.6 °C 1022.6 hPa NW 46.3 km/h 46.3 km/h 78 % 0.0 mm 401.0 W/m2 CLR
10:43 6.2 °C 2.5 °C 1022.6 hPa NW 55.5 km/h 55.5 km/h 77 % 0.0 mm 427.0 W/m2 CLR
10:48 6.4 °C 2.8 °C 1022.9 hPa NW 48.1 km/h 48.1 km/h 78 % 0.0 mm 471.0 W/m2 CLR
10:53 6.6 °C 2.8 °C 1022.9 hPa NNW 55.5 km/h 55.5 km/h 77 % 0.0 mm 454.0 W/m2 CLR
10:58 6.6 °C 2.7 °C 1022.6 hPa NNW 55.5 km/h 55.5 km/h 76 % 0.0 mm 429.0 W/m2 CLR
11:03 6.8 °C 3.0 °C 1022.6 hPa NW 42.6 km/h 42.6 km/h 77 % 0.0 mm 434.0 W/m2 CLR
11:08 6.9 °C 3.0 °C 1022.6 hPa NW 48.1 km/h 48.1 km/h 76 % 0.0 mm 441.0 W/m2 CLR
11:13 7.1 °C 3.0 °C 1022.6 hPa NW 55.5 km/h 55.5 km/h 75 % 0.0 mm 455.0 W/m2 CLR
11:18 7.3 °C 2.8 °C 1022.6 hPa NW 53.7 km/h 53.7 km/h 73 % 0.0 mm 464.0 W/m2 CLR
11:23 7.3 °C 2.8 °C 1022.6 hPa NW 51.8 km/h 51.8 km/h 73 % 0.0 mm 468.0 W/m2 CLR
11:28 7.4 °C 2.9 °C 1022.6 hPa NW 55.5 km/h 55.5 km/h 73 % 0.0 mm 485.0 W/m2 CLR
11:33 7.6 °C 3.1 °C 1022.6 hPa NW 46.3 km/h 46.3 km/h 73 % 0.0 mm 522.0 W/m2 CLR
11:38 7.8 °C 3.2 °C 1022.6 hPa NW 38.9 km/h 38.9 km/h 73 % 0.0 mm 538.0 W/m2 CLR
11:43 7.9 °C 2.8 °C 1022.6 hPa NW 55.5 km/h 55.5 km/h 70 % 0.0 mm 508.0 W/m2 CLR
11:48 7.9 °C 2.8 °C 1022.6 hPa NW 57.4 km/h 57.4 km/h 70 % 0.0 mm 515.0 W/m2 CLR
11:53 8.1 °C 2.9 °C 1022.9 hPa NW 44.4 km/h 44.4 km/h 70 % 0.0 mm 554.0 W/m2 CLR
11:58 8.2 °C 2.9 °C 1022.9 hPa NW 48.3 km/h 48.3 km/h 69 % 0.0 mm 536.0 W/m2 CLR
12:03 8.1 °C 2.8 °C 1022.9 hPa NNW 40.7 km/h 40.7 km/h 69 % 0.0 mm 540.0 W/m2 CLR
12:08 8.2 °C 2.9 °C 1022.6 hPa NNW 61.1 km/h 61.1 km/h 69 % 0.0 mm 540.0 W/m2 CLR
12:13 8.2 °C 2.8 °C 1022.6 hPa NW 46.3 km/h 46.3 km/h 69 % 0.0 mm 573.0 W/m2 CLR
12:18 8.4 °C 3.0 °C 1022.6 hPa NW 59.2 km/h 59.2 km/h 69 % 0.0 mm 575.0 W/m2 CLR
12:23 8.5 °C 2.9 °C 1022.6 hPa NW 55.5 km/h 55.5 km/h 68 % 0.0 mm 575.0 W/m2 CLR
12:28 8.6 °C 2.8 °C 1022.6 hPa NW 51.8 km/h 51.8 km/h 67 % 0.0 mm 561.0 W/m2 CLR
12:33 8.6 °C 2.8 °C 1022.6 hPa NW 35.2 km/h 35.2 km/h 67 % 0.0 mm 578.0 W/m2 CLR
12:38 8.7 °C 2.9 °C 1022.2 hPa NW 57.4 km/h 57.4 km/h 67 % 0.0 mm 570.0 W/m2 CLR
12:43 8.7 °C 3.1 °C 1022.2 hPa NW 55.5 km/h 55.5 km/h 68 % 0.0 mm 563.0 W/m2 CLR
12:48 8.6 °C 2.8 °C 1022.2 hPa NW 66.6 km/h 66.6 km/h 67 % 0.0 mm 564.0 W/m2 CLR
12:53 8.8 °C 3.0 °C 1022.2 hPa NW 50.0 km/h 50.0 km/h 67 % 0.0 mm 563.0 W/m2 CLR
12:58 8.8 °C 2.6 °C 1022.2 hPa NW 55.5 km/h 55.5 km/h 65 % 0.0 mm 563.0 W/m2 CLR
13:03 9.1 °C 2.8 °C 1021.9 hPa NW 61.1 km/h 61.1 km/h 65 % 0.0 mm 566.0 W/m2 CLR
13:08 8.9 °C 2.5 °C 1021.9 hPa NW 53.7 km/h 53.7 km/h 64 % 0.0 mm 566.0 W/m2 CLR
13:13 9.1 °C 3.1 °C 1021.9 hPa NNW 46.7 km/h 46.7 km/h 66 % 0.0 mm 566.0 W/m2 CLR
13:18 9.2 °C 2.5 °C 1021.9 hPa NW 59.2 km/h 59.2 km/h 63 % 0.0 mm 566.0 W/m2 CLR
13:23 9.2 °C 2.3 °C 1022.2 hPa NW 55.5 km/h 55.5 km/h 62 % 0.0 mm 568.0 W/m2 CLR
13:28 9.5 °C 2.6 °C 1021.9 hPa NNW 43.4 km/h 43.4 km/h 62 % 0.0 mm 566.0 W/m2 CLR
13:33 9.6 °C 2.2 °C 1021.9 hPa NNW 53.7 km/h 53.7 km/h 60 % 0.0 mm 564.0 W/m2 CLR
13:38 9.6 °C 2.2 °C 1022.2 hPa NNW 61.1 km/h 61.1 km/h 60 % 0.0 mm 563.0 W/m2 CLR
13:43 9.7 °C 2.7 °C 1021.9 hPa NNW 42.6 km/h 42.6 km/h 62 % 0.0 mm 563.0 W/m2 CLR
13:48 9.6 °C 2.0 °C 1022.2 hPa NNW 55.5 km/h 55.5 km/h 59 % 0.0 mm 566.0 W/m2 CLR
13:53 9.6 °C 2.2 °C 1022.2 hPa NNW 50.0 km/h 50.0 km/h 60 % 0.0 mm 559.0 W/m2 CLR
13:58 9.6 °C 2.4 °C 1022.2 hPa NNW 53.7 km/h 53.7 km/h 61 % 0.0 mm 555.0 W/m2 CLR
14:03 9.6 °C 2.4 °C 1022.2 hPa NW 66.0 km/h 66.0 km/h 61 % 0.0 mm 548.0 W/m2 CLR
14:08 9.5 °C 2.1 °C 1022.2 hPa NNW 64.8 km/h 64.8 km/h 60 % 0.0 mm 547.0 W/m2 CLR
14:13 9.7 °C 2.3 °C 1021.9 hPa NW 44.4 km/h 44.4 km/h 60 % 0.0 mm 543.0 W/m2 CLR
14:18 9.9 °C 2.2 °C 1021.9 hPa NNW 57.4 km/h 57.4 km/h 59 % 0.0 mm 538.0 W/m2 CLR
14:23 9.8 °C 2.2 °C 1021.9 hPa NW 55.5 km/h 55.5 km/h 59 % 0.0 mm 534.0 W/m2 CLR
14:28 9.9 °C 2.2 °C 1021.9 hPa NW 57.4 km/h 57.4 km/h 59 % 0.0 mm 526.0 W/m2 CLR
14:33 9.8 °C 2.6 °C 1021.9 hPa NW 51.8 km/h 51.8 km/h 61 % 0.0 mm 520.0 W/m2 CLR
14:39 9.9 °C 2.2 °C 1021.6 hPa NW 66.6 km/h 66.6 km/h 59 % 0.0 mm 513.0 W/m2 CLR
14:43 9.8 °C 2.2 °C 1021.6 hPa NW 48.1 km/h 48.1 km/h 59 % 0.0 mm 508.0 W/m2 CLR
14:49 10.0 °C 1.9 °C 1021.9 hPa NW 57.4 km/h 57.4 km/h 57 % 0.0 mm 501.0 W/m2 CLR
14:54 10.2 °C 2.5 °C 1021.6 hPa NW 37.0 km/h 37.0 km/h 59 % 0.0 mm 494.0 W/m2 CLR
14:59 10.2 °C 1.8 °C 1021.9 hPa NW 62.8 km/h 62.8 km/h 56 % 0.0 mm 489.0 W/m2 CLR
15:04 10.2 °C 1.5 °C 1021.6 hPa NW 53.7 km/h 53.7 km/h 55 % 0.0 mm 478.0 W/m2 CLR
15:09 10.2 °C 1.3 °C 1021.9 hPa NW 51.8 km/h 51.8 km/h 54 % 0.0 mm 469.0 W/m2 CLR
15:14 10.2 °C 0.8 °C 1021.9 hPa NW 55.5 km/h 55.5 km/h 52 % 0.0 mm 462.0 W/m2 CLR
15:19 10.3 °C 1.2 °C 1021.6 hPa NW 42.6 km/h 42.6 km/h 53 % 0.0 mm 452.0 W/m2 CLR
15:24 10.4 °C 0.9 °C 1021.9 hPa NW 55.5 km/h 55.5 km/h 52 % 0.0 mm 445.0 W/m2 CLR
15:29 10.5 °C 0.8 °C 1021.6 hPa NW 57.4 km/h 57.4 km/h 51 % 0.0 mm 431.0 W/m2 CLR
15:34 10.6 °C 0.9 °C 1021.6 hPa NW 48.1 km/h 48.1 km/h 51 % 0.0 mm 420.0 W/m2 CLR
15:39 10.7 °C 1.2 °C 1021.9 hPa NW 38.9 km/h 38.9 km/h 52 % 0.0 mm 411.0 W/m2 CLR
15:44 10.6 °C 1.4 °C 1021.6 hPa NW 51.8 km/h 51.8 km/h 53 % 0.0 mm 399.0 W/m2 CLR
15:49 10.4 °C 1.4 °C 1021.6 hPa NW 44.4 km/h 44.4 km/h 54 % 0.0 mm 392.0 W/m2 CLR
15:54 10.3 °C 1.6 °C 1021.9 hPa NW 64.8 km/h 64.8 km/h 55 % 0.0 mm 376.0 W/m2 CLR
15:59 10.2 °C 2.1 °C 1021.9 hPa NW 44.4 km/h 44.4 km/h 57 % 0.0 mm 373.0 W/m2 CLR
16:04 10.2 °C 2.3 °C 1021.9 hPa NW 35.2 km/h 35.2 km/h 58 % 0.0 mm 359.0 W/m2 CLR
16:09 10.1 °C 2.2 °C 1021.9 hPa NW 50.0 km/h 50.0 km/h 58 % 0.0 mm 364.0 W/m2 CLR
16:14 10.1 °C 2.2 °C 1021.9 hPa NW 40.7 km/h 40.7 km/h 58 % 0.0 mm 330.0 W/m2 CLR
16:19 9.8 °C 2.2 °C 1021.9 hPa NW 53.7 km/h 53.7 km/h 59 % 0.0 mm 339.0 W/m2 CLR
16:24 9.7 °C 2.3 °C 1021.9 hPa NNW 37.0 km/h 37.0 km/h 60 % 0.0 mm 311.0 W/m2 CLR
16:29 9.9 °C 2.5 °C 1021.9 hPa NW 50.0 km/h 50.0 km/h 60 % 0.0 mm 295.0 W/m2 CLR
16:34 9.8 °C 2.2 °C 1021.9 hPa NW 38.9 km/h 38.9 km/h 59 % 0.0 mm 276.0 W/m2 CLR
16:39 9.8 °C 2.1 °C 1022.2 hPa NW 50.0 km/h 50.0 km/h 59 % 0.0 mm 260.0 W/m2 CLR
16:44 9.6 °C 1.7 °C 1021.9 hPa NW 53.7 km/h 53.7 km/h 58 % 0.0 mm 246.0 W/m2 CLR
16:49 9.5 °C 1.9 °C 1021.9 hPa NW 61.1 km/h 61.1 km/h 59 % 0.0 mm 230.0 W/m2 CLR
16:54 9.4 °C 2.0 °C 1021.9 hPa NW 53.7 km/h 53.7 km/h 60 % 0.0 mm 209.0 W/m2 CLR
16:59 9.3 °C 1.7 °C 1021.9 hPa NW 48.1 km/h 48.1 km/h 59 % 0.0 mm 193.0 W/m2 CLR
17:04 9.3 °C 1.9 °C 1021.9 hPa NW 50.0 km/h 50.0 km/h 60 % 0.0 mm 176.0 W/m2 CLR
17:09 9.3 °C 1.9 °C 1021.9 hPa NW 46.7 km/h 46.7 km/h 60 % 0.0 mm 162.0 W/m2 CLR
17:14 9.3 °C 2.1 °C 1021.9 hPa NW 41.8 km/h 41.8 km/h 61 % 0.0 mm 141.0 W/m2 CLR
17:19 9.2 °C 2.1 °C 1021.9 hPa NW 38.9 km/h 38.9 km/h 61 % 0.0 mm 127.0 W/m2 CLR
17:24 9.1 °C 2.2 °C 1021.9 hPa NW 44.4 km/h 44.4 km/h 62 % 0.0 mm 109.0 W/m2 CLR
17:29 9.0 °C 1.7 °C 1021.9 hPa NW 50.0 km/h 50.0 km/h 60 % 0.0 mm 97.0 W/m2 CLR
17:34 8.9 °C 1.6 °C 1021.6 hPa NW 55.5 km/h 55.5 km/h 60 % 0.0 mm 79.0 W/m2 FEW
17:39 8.8 °C 1.7 °C 1021.9 hPa NW 59.2 km/h 59.2 km/h 61 % 0.0 mm 28.0 W/m2 BKN
17:44 8.7 °C 1.6 °C 1021.9 hPa NW 46.3 km/h 46.3 km/h 61 % 0.0 mm 46.0 W/m2 SCT
17:49 8.7 °C 2.0 °C 1021.9 hPa NW 48.1 km/h 48.1 km/h 63 % 0.0 mm 21.0 W/m2 BKN
17:54 8.6 °C 2.3 °C 1021.9 hPa NW 51.5 km/h 51.5 km/h 65 % 0.0 mm 19.0 W/m2 BKN
17:59 8.4 °C 2.4 °C 1021.9 hPa NW 53.7 km/h 53.7 km/h 66 % 0.0 mm 18.0 W/m2 BKN
18:04 8.3 °C 2.6 °C 1022.2 hPa NW 49.9 km/h 49.9 km/h 67 % 0.0 mm 14.0 W/m2 BKN
18:09 8.2 °C 2.6 °C 1021.9 hPa NW 50.0 km/h 50.0 km/h 68 % 0.0 mm 12.0 W/m2 BKN
18:14 8.1 °C 2.7 °C 1022.2 hPa NW 48.1 km/h 48.1 km/h 69 % 0.0 mm 9.0 W/m2 BKN
18:19 7.9 °C 2.4 °C 1022.2 hPa NW 42.6 km/h 42.6 km/h 68 % 0.0 mm 7.0 W/m2 BKN
18:24 7.9 °C 2.3 °C 1022.2 hPa NW 53.7 km/h 53.7 km/h 68 % 0.0 mm 5.0 W/m2 OVC
18:29 7.9 °C 2.3 °C 1022.2 hPa NW 55.5 km/h 55.5 km/h 68 % 0.0 mm 0.0 W/m2 OVC
18:34 7.8 °C 2.2 °C 1022.6 hPa NW 48.1 km/h 48.1 km/h 68 % 0.0 mm 0.0 W/m2 OVC
18:39 7.7 °C 2.2 °C 1022.6 hPa NW 53.7 km/h 53.7 km/h 68 % 0.0 mm 0.0 W/m2 CLR
18:44 7.6 °C 2.0 °C 1022.6 hPa NW 44.4 km/h 44.4 km/h 68 % 0.0 mm 0.0 W/m2 CLR
18:49 7.5 °C 2.2 °C 1022.6 hPa NW 42.6 km/h 42.6 km/h 69 % 0.0 mm 0.0 W/m2 CLR
18:54 7.4 °C 2.3 °C 1022.6 hPa NW 50.0 km/h 50.0 km/h 70 % 0.0 mm 0.0 W/m2 CLR
18:59 7.4 °C 2.4 °C 1022.9 hPa NW 44.4 km/h 44.4 km/h 71 % 0.0 mm 0.0 W/m2 CLR
19:04 7.3 °C 2.4 °C 1022.9 hPa NW 57.4 km/h 57.4 km/h 71 % 0.0 mm 0.0 W/m2
19:09 7.2 °C 2.5 °C 1022.9 hPa NW 46.3 km/h 46.3 km/h 72 % 0.0 mm 0.0 W/m2 CLR
19:14 7.2 °C 2.3 °C 1022.9 hPa NW 55.5 km/h 55.5 km/h 71 % 0.0 mm 0.0 W/m2
19:19 7.2 °C 2.3 °C 1022.9 hPa NW 48.1 km/h 48.1 km/h 71 % 0.0 mm 0.0 W/m2 CLR
19:24 7.1 °C 2.2 °C 1023.2 hPa NW 51.8 km/h 51.8 km/h 71 % 0.0 mm 0.0 W/m2 CLR
19:29 7.1 °C 2.2 °C 1023.2 hPa NW 46.7 km/h 46.7 km/h 71 % 0.0 mm 0.0 W/m2 CLR
19:34 7.0 °C 2.1 °C 1023.2 hPa NW 46.3 km/h 46.3 km/h 71 % 0.0 mm 0.0 W/m2 CLR
19:39 6.9 °C 2.1 °C 1023.6 hPa NW 55.5 km/h 55.5 km/h 71 % 0.0 mm 0.0 W/m2 CLR
19:44 6.9 °C 2.1 °C 1023.6 hPa NW 51.5 km/h 51.5 km/h 71 % 0.0 mm 0.0 W/m2 CLR
19:49 6.9 °C 2.0 °C 1023.6 hPa NW 53.7 km/h 53.7 km/h 71 % 0.0 mm 0.0 W/m2 CLR
19:54 6.8 °C 1.9 °C 1023.6 hPa NW 48.1 km/h 48.1 km/h 71 % 0.0 mm 0.0 W/m2 CLR
19:59 6.8 °C 1.9 °C 1023.9 hPa NW 46.3 km/h 46.3 km/h 71 % 0.0 mm 0.0 W/m2 CLR
20:04 6.8 °C 1.7 °C 1023.9 hPa NW 45.1 km/h 45.1 km/h 70 % 0.0 mm 0.0 W/m2 CLR
20:09 6.8 °C 1.7 °C 1023.9 hPa NW 51.8 km/h 51.8 km/h 70 % 0.0 mm 0.0 W/m2 CLR
20:14 6.8 °C 1.9 °C 1023.9 hPa NW 51.8 km/h 51.8 km/h 71 % 0.0 mm 0.0 W/m2 CLR
20:19 6.7 °C 1.8 °C 1023.9 hPa NW 54.7 km/h 54.7 km/h 71 % 0.0 mm 0.0 W/m2 CLR
20:24 6.7 °C 1.8 °C 1024.3 hPa NW 50.0 km/h 50.0 km/h 71 % 0.0 mm 0.0 W/m2 CLR
20:29 6.7 °C 1.8 °C 1024.3 hPa NW 38.9 km/h 38.9 km/h 71 % 0.0 mm 0.0 W/m2 CLR
20:34 6.6 °C 1.9 °C 1024.3 hPa NW 37.0 km/h 37.0 km/h 72 % 0.0 mm 0.0 W/m2 CLR
20:39 6.6 °C 2.1 °C 1024.3 hPa NW 46.3 km/h 46.3 km/h 73 % 0.0 mm 0.0 W/m2 CLR
20:44 6.5 °C 2.2 °C 1023.9 hPa NW 53.7 km/h 53.7 km/h 74 % 0.0 mm 0.0 W/m2 CLR
20:49 6.4 °C 2.3 °C 1023.9 hPa NW 46.7 km/h 46.7 km/h 75 % 0.0 mm 0.0 W/m2 CLR
20:54 6.4 °C 2.3 °C 1024.3 hPa NNW 46.3 km/h 46.3 km/h 75 % 0.0 mm 0.0 W/m2 CLR
20:59 6.4 °C 2.3 °C 1024.3 hPa NNW 53.7 km/h 53.7 km/h 75 % 0.0 mm 0.0 W/m2 CLR
21:04 6.3 °C 2.2 °C 1024.3 hPa NW 42.6 km/h 42.6 km/h 75 % 0.0 mm 0.0 W/m2 CLR
21:09 6.4 °C 2.3 °C 1024.3 hPa NNW 53.7 km/h 53.7 km/h 75 % 0.0 mm 0.0 W/m2 CLR
21:14 6.3 °C 2.2 °C 1024.3 hPa NNW 45.1 km/h 45.1 km/h 75 % 0.0 mm 0.0 W/m2 CLR
21:20 6.2 °C 2.1 °C 1024.3 hPa NNW 57.4 km/h 57.4 km/h 75 % 0.0 mm 0.0 W/m2
21:22 6.2 °C 2.1 °C 1024.3 hPa NNW 44.4 km/h 44.4 km/h 75 % 0.0 mm 0.0 W/m2 CLR
21:27 6.2 °C 2.1 °C 1024.3 hPa NW 44.4 km/h 44.4 km/h 75 % 0.0 mm 0.0 W/m2 CLR
21:32 6.1 °C 2.2 °C 1024.3 hPa NW 51.8 km/h 51.8 km/h 76 % 0.0 mm 0.0 W/m2 CLR
21:37 6.1 °C 2.2 °C 1024.3 hPa NW 44.4 km/h 44.4 km/h 76 % 0.0 mm 0.0 W/m2 CLR
21:42 6.0 °C 2.1 °C 1024.3 hPa NW 44.4 km/h 44.4 km/h 76 % 0.0 mm 0.0 W/m2 CLR
21:47 6.0 °C 2.1 °C 1024.3 hPa NW 44.4 km/h 44.4 km/h 76 % 0.0 mm 0.0 W/m2 CLR
21:52 5.9 °C 2.1 °C 1024.6 hPa NW 48.3 km/h 48.3 km/h 76 % 0.0 mm 0.0 W/m2 CLR
21:57 5.9 °C 2.2 °C 1024.6 hPa NW 38.9 km/h 38.9 km/h 77 % 0.0 mm 0.0 W/m2 CLR
22:02 5.8 °C 2.1 °C 1024.6 hPa NW 40.7 km/h 40.7 km/h 77 % 0.0 mm 0.0 W/m2 CLR
22:07 5.8 °C 2.1 °C 1024.6 hPa NW 42.6 km/h 42.6 km/h 77 % 0.0 mm 0.0 W/m2 CLR
22:12 5.8 °C 2.1 °C 1024.6 hPa NW 37.0 km/h 37.0 km/h 77 % 0.0 mm 0.0 W/m2 CLR
22:17 5.8 °C 2.1 °C 1024.9 hPa NW 37.0 km/h 37.0 km/h 77 % 0.0 mm 0.0 W/m2 CLR
22:22 5.7 °C 2.0 °C 1024.6 hPa NW 40.2 km/h 40.2 km/h 77 % 0.0 mm 0.0 W/m2 CLR
22:27 5.8 °C 2.1 °C 1024.6 hPa NW 48.1 km/h 48.1 km/h 77 % 0.0 mm 0.0 W/m2 CLR
22:32 5.8 °C 2.1 °C 1024.9 hPa NW 44.4 km/h 44.4 km/h 77 % 0.0 mm 0.0 W/m2 CLR
22:37 5.8 °C 2.1 °C 1024.9 hPa NW 45.1 km/h 45.1 km/h 77 % 0.0 mm 0.0 W/m2 CLR
22:42 5.7 °C 2.2 °C 1024.9 hPa NW 40.7 km/h 40.7 km/h 78 % 0.0 mm 0.0 W/m2 CLR
22:47 5.8 °C 2.1 °C 1024.9 hPa NW 38.9 km/h 38.9 km/h 77 % 0.0 mm 0.0 W/m2 CLR
22:52 5.7 °C 2.0 °C 1024.9 hPa NW 40.7 km/h 40.7 km/h 77 % 0.0 mm 0.0 W/m2 CLR
22:57 5.7 °C 2.0 °C 1024.9 hPa NW 31.5 km/h 31.5 km/h 77 % 0.0 mm 0.0 W/m2 CLR
23:02 5.7 °C 2.0 °C 1024.9 hPa NW 35.2 km/h 35.2 km/h 77 % 0.0 mm 0.0 W/m2 CLR
23:07 5.7 °C 2.2 °C 1024.9 hPa NW 40.7 km/h 40.7 km/h 78 % 0.0 mm 0.0 W/m2 CLR
23:08 5.7 °C 2.2 °C 1024.9 hPa NW 40.7 km/h 40.7 km/h 78 % 0.0 mm 0.0 W/m2 CLR
23:13 5.7 °C 2.0 °C 1024.9 hPa NW 42.6 km/h 42.6 km/h 77 % 0.0 mm 0.0 W/m2 CLR
23:18 5.7 °C 2.2 °C 1024.9 hPa NW 35.2 km/h 35.2 km/h 78 % 0.0 mm 0.0 W/m2 CLR
23:23 5.7 °C 2.1 °C 1024.9 hPa NW 38.9 km/h 38.9 km/h 78 % 0.0 mm 0.0 W/m2 CLR
23:28 5.6 °C 2.1 °C 1024.6 hPa NW 40.7 km/h 40.7 km/h 78 % 0.0 mm 0.0 W/m2 CLR
23:33 5.6 °C 2.1 °C 1024.6 hPa NW 29.6 km/h 29.6 km/h 78 % 0.0 mm 0.0 W/m2 CLR
23:38 5.6 °C 2.0 °C 1024.6 hPa NW 35.2 km/h 35.2 km/h 78 % 0.0 mm 0.0 W/m2 CLR
23:43 5.6 °C 2.0 °C 1024.6 hPa NW 42.6 km/h 42.6 km/h 78 % 0.0 mm 0.0 W/m2 CLR
23:48 5.5 °C 1.9 °C 1024.6 hPa NW 37.0 km/h 37.0 km/h 78 % 0.0 mm 0.0 W/m2 CLR
23:53 5.5 °C 1.9 °C 1024.6 hPa NW 32.2 km/h 32.2 km/h 78 % 0.0 mm 0.0 W/m2 CLR
23:58 5.5 °C 2.2 °C 1024.6 hPa NW 42.6 km/h 42.6 km/h 79 % 0.0 mm 0.0 W/m2 CLR
Lo Temps de Massalio
Compliments of Weather Underground - 1.25 mb